createdAt,value
2022-12-20T00:00:15.236Z,8.50
2022-12-20T00:04:19.429Z,5.27
2022-12-20T00:08:22.381Z,5.03
2022-12-20T00:12:25.783Z,6.73
2022-12-20T00:16:29.879Z,5.40
2022-12-20T00:20:34.052Z,4.70
2022-12-20T00:24:37.144Z,5.47
2022-12-20T00:28:40.907Z,5.07
2022-12-20T00:32:44.233Z,8.60
2022-12-20T00:36:48.473Z,6.63
2022-12-20T00:41:01.021Z,4.80
2022-12-20T00:45:04.361Z,5.53
2022-12-20T00:49:07.484Z,6.00
2022-12-20T00:53:11.681Z,5.13
2022-12-20T00:57:14.526Z,5.43
2022-12-20T01:01:20.918Z,4.80
2022-12-20T01:05:24.518Z,4.77
2022-12-20T01:09:28.691Z,4.47
2022-12-20T01:13:32.402Z,4.53
2022-12-20T01:17:35.310Z,4.50
2022-12-20T01:21:39.717Z,4.40
2022-12-20T01:25:43.809Z,7.63
2022-12-20T01:29:46.654Z,4.43
2022-12-20T01:33:51.403Z,5.13
2022-12-20T01:37:54.389Z,6.50
2022-12-20T01:41:58.573Z,4.20
2022-12-20T01:46:01.504Z,4.90
2022-12-20T01:50:06.415Z,4.73
2022-12-20T01:54:15.196Z,4.00
2022-12-20T01:58:21.093Z,4.60
2022-12-20T02:02:24.935Z,3.87
2022-12-20T02:06:28.821Z,4.80
2022-12-20T02:10:47.106Z,5.07
2022-12-20T02:15:05.404Z,4.30
2022-12-20T02:19:17.350Z,4.23
2022-12-20T02:23:59.733Z,4.17
2022-12-20T02:28:08.879Z,4.10
2022-12-20T02:32:21.083Z,4.27
2022-12-20T02:36:25.439Z,4.50
2022-12-20T02:40:33.513Z,6.33
2022-12-20T02:44:55.964Z,4.33
2022-12-20T02:49:04.390Z,4.50
2022-12-20T02:53:09.032Z,4.23
2022-12-20T02:57:20.687Z,3.60
2022-12-20T03:01:29.089Z,4.17
2022-12-20T03:05:36.596Z,4.27
2022-12-20T03:09:41.150Z,4.40
2022-12-20T03:13:44.030Z,3.97
2022-12-20T03:17:46.946Z,4.57
2022-12-20T03:21:51.224Z,5.23
2022-12-20T03:25:54.085Z,4.57
2022-12-20T03:30:15.713Z,4.90
2022-12-20T03:34:19.154Z,5.20
2022-12-20T03:38:23.442Z,5.40
2022-12-20T03:42:26.202Z,5.93
2022-12-20T03:46:29.324Z,5.23
2022-12-20T03:50:32.686Z,5.53
2022-12-20T03:54:38.576Z,4.90
2022-12-20T03:58:48.550Z,5.43
2022-12-20T04:02:52.528Z,5.43
2022-12-20T04:06:55.533Z,7.50
2022-12-20T04:11:18.207Z,5.67
2022-12-20T04:15:26.589Z,5.63
2022-12-20T04:19:29.980Z,5.47
2022-12-20T04:23:33.429Z,6.10
2022-12-20T04:27:37.942Z,6.87
2022-12-20T04:31:43.394Z,6.07
2022-12-20T04:35:46.778Z,6.77
2022-12-20T04:39:49.947Z,7.00
2022-12-20T04:43:59.219Z,6.80
2022-12-20T04:48:37.492Z,6.37
2022-12-20T04:52:50.661Z,7.87
2022-12-20T04:56:54.218Z,7.83
2022-12-20T05:01:00.493Z,8.33
2022-12-20T05:05:10.439Z,7.73
2022-12-20T05:09:19.836Z,7.20
2022-12-20T05:13:22.821Z,7.40
2022-12-20T05:17:27.635Z,6.87
2022-12-20T05:21:48.117Z,7.90
2022-12-20T05:26:09.623Z,8.37
2022-12-20T05:30:15.994Z,7.00
2022-12-20T05:34:21.383Z,7.30
2022-12-20T05:38:29.801Z,6.93
2022-12-20T05:42:33.243Z,7.43
2022-12-20T05:46:36.227Z,7.50
2022-12-20T05:50:46.141Z,8.33
2022-12-20T05:55:02.130Z,7.13
2022-12-20T05:59:05.439Z,6.43
2022-12-20T06:03:09.404Z,7.07
2022-12-20T06:07:14.455Z,8.97
2022-12-20T06:11:23.097Z,7.50
2022-12-20T06:15:35.918Z,7.03
2022-12-20T06:19:40.096Z,6.33
2022-12-20T06:23:46.466Z,5.77
2022-12-20T06:27:50.352Z,7.53
2022-12-20T06:31:54.224Z,6.93
2022-12-20T06:35:57.106Z,6.67
2022-12-20T06:40:01.368Z,7.67
2022-12-20T06:44:05.285Z,5.70
2022-12-20T06:48:08.766Z,7.07
2022-12-20T06:52:11.857Z,6.60
2022-12-20T06:56:27.991Z,8.23
2022-12-20T07:00:31.094Z,6.47
2022-12-20T07:04:34.297Z,5.43
2022-12-20T07:08:37.093Z,7.33
2022-12-20T07:12:47.423Z,8.17
2022-12-20T07:16:51.226Z,8.03
2022-12-20T07:20:54.117Z,6.87
2022-12-20T07:24:56.910Z,6.40
2022-12-20T07:29:01.066Z,7.93
2022-12-20T07:33:03.915Z,7.87
2022-12-20T07:37:08.541Z,8.90
2022-12-20T07:41:13.264Z,8.07
2022-12-20T07:45:17.648Z,6.80
2022-12-20T07:49:20.476Z,8.10
2022-12-20T07:53:25.605Z,7.77
2022-12-20T07:57:33.245Z,6.83
2022-12-20T08:01:37.648Z,6.43
2022-12-20T08:05:43.347Z,5.60
2022-12-20T08:09:47.664Z,5.33
2022-12-20T08:13:57.286Z,5.33
2022-12-20T08:18:02.126Z,5.10
2022-12-20T08:22:05.168Z,6.17
2022-12-20T08:26:08.310Z,4.70
2022-12-20T08:30:12.044Z,4.83
2022-12-20T08:34:16.252Z,4.80
2022-12-20T08:38:19.054Z,5.33
2022-12-20T08:42:22.913Z,4.90
2022-12-20T08:46:25.827Z,4.30
2022-12-20T08:50:30.217Z,4.20
2022-12-20T08:54:32.983Z,4.13
2022-12-20T08:58:35.902Z,4.67
2022-12-20T09:02:39.147Z,4.50
2022-12-20T09:06:43.370Z,3.90
2022-12-20T09:10:46.143Z,4.43
2022-12-20T09:14:48.904Z,4.07
2022-12-20T09:18:52.013Z,4.27
2022-12-20T09:22:56.129Z,4.00
2022-12-20T09:26:58.906Z,4.40
2022-12-20T09:31:02.317Z,6.23
2022-12-20T09:35:05.508Z,4.83
2022-12-20T09:39:09.900Z,4.07
2022-12-20T09:43:13.695Z,5.47
2022-12-20T09:47:21.207Z,3.93
2022-12-20T09:51:45.255Z,3.60
2022-12-20T09:55:54.559Z,4.83
2022-12-20T09:59:58.143Z,4.47
2022-12-20T10:04:06.791Z,4.67
2022-12-20T10:08:17.808Z,4.90
2022-12-20T10:12:34.263Z,5.67
2022-12-20T10:16:43.075Z,4.70
2022-12-20T10:20:56.861Z,4.97
2022-12-20T10:25:02.941Z,4.47
2022-12-20T10:29:07.625Z,4.60
2022-12-20T10:33:18.174Z,4.40
2022-12-20T10:37:20.891Z,4.60
2022-12-20T10:41:25.407Z,5.03
2022-12-20T10:45:36.477Z,5.30
2022-12-20T10:49:41.183Z,6.00
2022-12-20T10:53:56.374Z,6.57
2022-12-20T10:58:04.410Z,7.13
2022-12-20T11:02:26.336Z,5.67
2022-12-20T11:06:41.336Z,7.50
2022-12-20T11:10:45.302Z,5.43
2022-12-20T11:14:49.262Z,5.47
2022-12-20T11:19:04.301Z,4.40
2022-12-20T11:23:23.816Z,5.13
2022-12-20T11:27:34.257Z,4.87
2022-12-20T11:31:49.569Z,6.90
2022-12-20T11:36:01.487Z,5.43
2022-12-20T11:40:17.376Z,5.13
2022-12-20T11:44:30.343Z,5.33
2022-12-20T11:48:50.134Z,4.77
2022-12-20T11:52:59.684Z,5.60
2022-12-20T11:57:10.940Z,5.20
2022-12-20T12:01:17.965Z,5.67
2022-12-20T12:05:25.329Z,4.80
2022-12-20T12:09:36.346Z,6.40
2022-12-20T12:13:41.558Z,8.17
2022-12-20T12:17:49.507Z,5.77
2022-12-20T12:22:01.577Z,8.60
2022-12-20T12:26:11.789Z,7.23
2022-12-20T12:30:15.971Z,6.00
2022-12-20T12:34:31.408Z,7.03
2022-12-20T12:39:02.600Z,5.80
2022-12-20T12:43:24.840Z,6.33
2022-12-20T12:47:36.359Z,6.60
2022-12-20T12:51:42.309Z,7.33
2022-12-20T12:55:47.044Z,6.77
2022-12-20T12:59:52.538Z,6.40
2022-12-20T13:04:11.615Z,6.27
2022-12-20T13:08:18.652Z,8.43
2022-12-20T13:12:56.261Z,8.90
2022-12-20T13:21:36.550Z,7.60
2022-12-20T13:25:41.137Z,6.63
2022-12-20T13:29:58.957Z,7.80
2022-12-20T13:34:04.053Z,9.23
2022-12-20T13:38:46.979Z,8.13
2022-12-20T13:42:54.927Z,7.40
2022-12-20T13:47:03.414Z,8.83
2022-12-20T13:51:08.064Z,8.13
2022-12-20T13:55:27.815Z,8.73
2022-12-20T13:59:33.332Z,8.03
2022-12-20T14:03:42.691Z,8.50
2022-12-20T14:07:49.026Z,7.73
2022-12-20T14:11:53.218Z,8.93
2022-12-20T14:15:57.421Z,9.27
2022-12-20T14:20:08.162Z,8.07
2022-12-20T14:24:16.754Z,8.60
2022-12-20T14:28:31.978Z,10.73
2022-12-20T14:32:34.760Z,7.97
2022-12-20T14:36:38.417Z,9.37
2022-12-20T14:40:42.916Z,8.60
2022-12-20T14:44:48.308Z,9.53
2022-12-20T14:49:09.155Z,9.93
2022-12-20T14:53:20.250Z,9.77
2022-12-20T14:57:25.738Z,11.60
2022-12-20T15:01:37.221Z,9.67
2022-12-20T15:05:47.326Z,10.07
2022-12-20T15:09:50.167Z,10.53
2022-12-20T15:13:55.577Z,10.57
2022-12-20T15:17:59.955Z,10.20
2022-12-20T15:22:03.105Z,8.73
2022-12-20T15:26:06.169Z,9.73
2022-12-20T15:30:13.866Z,9.60
2022-12-20T15:34:23.439Z,9.40
2022-12-20T15:38:55.220Z,8.97
2022-12-20T15:42:50.594Z,10.53
2022-12-20T15:46:53.822Z,9.83
2022-12-20T15:50:59.341Z,10.40
2022-12-20T15:55:02.229Z,8.23
2022-12-20T15:59:24.520Z,11.03
2022-12-20T16:03:32.685Z,6.80
2022-12-20T16:07:37.062Z,8.07
2022-12-20T16:11:40.602Z,15.37
2022-12-20T16:15:44.076Z,14.97
2022-12-20T16:19:47.259Z,11.40
2022-12-20T16:23:51.991Z,8.03
2022-12-20T16:27:54.831Z,8.43
2022-12-20T16:31:57.787Z,9.43
2022-12-20T16:36:00.642Z,8.30
2022-12-20T16:40:05.435Z,8.37
2022-12-20T16:44:13.655Z,9.00
2022-12-20T16:48:16.423Z,8.37
2022-12-20T16:52:19.699Z,9.73
2022-12-20T16:56:24.508Z,10.87
2022-12-20T17:00:27.986Z,11.23
2022-12-20T17:04:30.863Z,10.33
2022-12-20T17:12:56.171Z,10.97
2022-12-20T17:16:59.829Z,10.33
2022-12-20T17:21:04.433Z,9.77
2022-12-20T17:25:07.584Z,14.03
2022-12-20T17:29:12.035Z,16.20
2022-12-20T17:33:16.349Z,15.00
2022-12-20T17:37:19.353Z,15.70
2022-12-20T17:41:25.205Z,11.80
2022-12-20T17:45:32.403Z,12.00
2022-12-20T17:49:35.278Z,11.20
2022-12-20T17:53:38.026Z,13.90
2022-12-20T17:57:40.838Z,13.10
2022-12-20T18:01:45.861Z,12.60
2022-12-20T18:05:48.800Z,11.57
2022-12-20T18:09:51.859Z,13.53
2022-12-20T18:13:58.401Z,13.30
2022-12-20T18:18:02.604Z,16.60
2022-12-20T18:22:06.465Z,17.30
2022-12-20T18:26:12.490Z,14.00
2022-12-20T18:30:15.589Z,13.63
2022-12-20T18:34:19.753Z,16.27
2022-12-20T18:38:23.395Z,18.03
2022-12-20T18:42:26.192Z,17.90
2022-12-20T18:46:42.695Z,19.35
2022-12-20T18:50:46.895Z,18.33
2022-12-20T18:54:49.753Z,19.30
2022-12-20T18:58:53.504Z,20.47
2022-12-20T19:02:59.303Z,19.37
2022-12-20T19:07:03.555Z,20.63
2022-12-20T19:11:08.661Z,21.37
2022-12-20T19:15:11.800Z,21.83
2022-12-20T19:19:14.668Z,30.10
2022-12-20T19:23:20.588Z,24.50
2022-12-20T19:27:23.608Z,28.20
2022-12-20T19:31:28.810Z,22.93
2022-12-20T19:35:54.856Z,21.50
2022-12-20T19:39:55.883Z,21.10
2022-12-20T19:43:59.127Z,23.97
2022-12-20T19:48:01.943Z,24.10
2022-12-20T19:52:05.669Z,21.63
2022-12-20T19:56:10.904Z,22.10
2022-12-20T20:00:14.931Z,18.27
2022-12-20T20:04:17.901Z,18.77
2022-12-20T20:08:20.681Z,32.83
2022-12-20T20:12:24.874Z,24.97
2022-12-20T20:16:27.708Z,18.97
2022-12-20T20:20:30.489Z,19.33
2022-12-20T20:24:33.341Z,17.47
2022-12-20T20:28:44.363Z,16.13
2022-12-20T20:32:48.259Z,28.47
2022-12-20T20:36:51.079Z,51.13
2022-12-20T20:40:54.191Z,20.20
2022-12-20T20:44:58.431Z,21.30
2022-12-20T20:49:05.834Z,18.17
2022-12-20T20:53:08.692Z,17.70
2022-12-20T20:57:11.458Z,18.00
2022-12-20T21:01:15.826Z,18.10
2022-12-20T21:09:41.798Z,18.17
2022-12-20T21:13:44.647Z,16.33
2022-12-20T21:17:48.810Z,21.47
2022-12-20T21:21:51.636Z,19.07
2022-12-20T21:25:57.375Z,20.63
2022-12-20T21:30:00.191Z,17.80
2022-12-20T21:34:04.452Z,21.87
2022-12-20T21:38:07.216Z,20.27
2022-12-20T21:42:10.383Z,18.37
2022-12-20T21:46:13.447Z,20.47
2022-12-20T21:50:17.821Z,21.87
2022-12-20T21:54:20.708Z,19.07
2022-12-20T21:58:23.845Z,22.17
2022-12-20T22:02:26.730Z,21.30
2022-12-20T22:06:31.552Z,20.73
2022-12-20T22:10:34.518Z,19.20
2022-12-20T22:14:37.308Z,18.60
2022-12-20T22:18:41.343Z,24.07
2022-12-20T22:22:45.488Z,19.53
2022-12-20T22:26:48.245Z,21.03
2022-12-20T22:30:52.188Z,25.27
2022-12-20T22:34:55.032Z,22.37
2022-12-20T22:38:59.568Z,22.83
2022-12-20T22:43:02.364Z,25.53
2022-12-20T22:47:06.024Z,26.80
2022-12-20T22:51:10.710Z,30.50
2022-12-20T22:55:14.917Z,22.97
2022-12-20T22:59:17.724Z,23.97
2022-12-20T23:03:20.672Z,21.27
2022-12-20T23:07:23.603Z,25.00
2022-12-20T23:11:46.729Z,18.57
2022-12-20T23:15:49.773Z,22.40
2022-12-20T23:20:24.425Z,16.43
2022-12-20T23:24:27.293Z,21.33
2022-12-20T23:28:31.510Z,22.03
2022-12-20T23:32:34.323Z,18.93
2022-12-20T23:36:37.846Z,24.40
2022-12-20T23:40:41.391Z,19.30
2022-12-20T23:44:45.636Z,18.50
2022-12-20T23:48:48.628Z,20.97
2022-12-20T23:52:51.387Z,21.73
2022-12-20T23:56:54.181Z,26.87
